Time;durP1;ratioP1;P1;durP2;ratioP2;P2;SDS_P1;SDS_P2;PMS_P1;PMS_P2;Temp;Humidity;BMP_temperature;BMP_pressure;BME280_temperature;BME280_humidity;BME280_pressure;Samples;Min_cycle;Max_cycle;Signal;HPM_P1;HPM_P2
2022/06/16 00:02:05;;;;;;;5.68;3.38;;;;;;;32.14;41.79;99431.22;5097865;28;20085;-87
2022/06/16 00:04:31;;;;;;;6.53;3.45;;;;;;;32.15;42.02;99432.09;5100237;28;20089;-88
2022/06/16 00:06:59;;;;;;;7.30;3.60;;;;;;;32.13;41.94;99437.66;5097658;28;20024;-86
2022/06/16 00:09:25;;;;;;;5.63;3.38;;;;;;;32.12;41.99;99437.81;5097662;28;20032;-85
2022/06/16 00:11:52;;;;;;;5.45;3.05;;;;;;;32.10;41.85;99440.66;5102139;28;20034;-85
2022/06/16 00:14:18;;;;;;;5.28;3.40;;;;;;;32.10;41.90;99437.13;5097262;28;20586;-86
2022/06/16 00:16:45;;;;;;;5.55;3.40;;;;;;;32.08;42.06;99437.31;5097201;28;20043;-86
2022/06/16 00:19:11;;;;;;;5.22;2.97;;;;;;;32.09;41.93;99444.38;5097346;28;20475;-84
2022/06/16 00:21:37;;;;;;;5.72;3.03;;;;;;;32.07;41.91;99446.41;5097335;28;20436;-86
2022/06/16 00:24:03;;;;;;;6.05;3.28;;;;;;;32.06;41.94;99450.13;5097351;28;20024;-87
2022/06/16 00:26:29;;;;;;;6.95;3.17;;;;;;;32.05;41.87;99448.41;5098132;28;20042;-87
2022/06/16 00:28:55;;;;;;;4.93;3.22;;;;;;;32.05;41.92;99440.31;5098242;28;20032;-85
2022/06/16 00:31:23;;;;;;;6.45;3.20;;;;;;;32.03;42.08;99450.44;5097178;28;20032;-85
2022/06/16 00:33:49;;;;;;;4.97;2.88;;;;;;;32.03;42.08;99450.44;5097171;28;20028;-86
2022/06/16 00:36:19;;;;;;;5.65;3.33;;;;;;;32.02;41.93;99459.56;5098494;28;20061;-85
2022/06/16 00:38:45;;;;;;;6.22;3.20;;;;;;;32.00;42.28;99451.63;5097259;28;20039;-86
2022/06/16 00:41:14;;;;;;;5.80;3.22;;;;;;;32.01;42.17;99452.47;5098337;28;20042;-88
2022/06/16 00:43:41;;;;;;;5.85;2.90;;;;;;;31.99;42.15;99454.47;5096865;28;20038;-87
2022/06/16 00:46:17;;;;;;;5.70;2.70;;;;;;;31.98;42.21;99455.50;5096932;28;20028;-86
2022/06/16 00:48:52;;;;;;;4.60;3.00;;;;;;;31.97;41.95;99461.91;5096550;28;20020;-87
2022/06/16 00:51:24;;;;;;;5.70;3.47;;;;;;;31.96;42.06;99465.63;5097207;28;20031;-87
2022/06/16 00:53:53;;;;;;;5.53;2.92;;;;;;;31.94;42.04;99473.03;5097628;28;20587;-89
2022/06/16 00:56:20;;;;;;;6.55;3.10;;;;;;;31.95;41.92;99463.94;5098171;28;20032;-88
2022/06/16 00:58:54;;;;;;;6.00;3.30;;;;;;;31.93;42.06;99466.81;5099403;28;20039;-88
2022/06/16 01:01:21;;;;;;;5.90;3.15;;;;;;;31.92;41.83;99464.25;5097555;28;20032;-88
2022/06/16 01:06:37;;;;;;;5.07;2.50;;;;;;;31.90;42.15;99471.69;5097488;28;20108;-85
2022/06/16 01:09:21;;;;;;;5.70;2.67;;;;;;;31.88;42.14;99472.69;5096324;28;20468;-85
2022/06/16 01:16:16;;;;;;;5.03;2.88;;;;;;;31.85;42.05;99472.16;5111452;28;20507;-86
2022/06/16 01:19:03;;;;;;;5.75;2.90;;;;;;;31.84;42.25;99478.53;5097963;28;20035;-86
2022/06/16 01:21:42;;;;;;;6.22;2.50;;;;;;;31.82;42.01;99478.72;5099411;28;20023;-86
2022/06/16 01:24:36;;;;;;;5.00;2.72;;;;;;;31.81;42.08;99477.00;5116399;28;20524;-87
2022/06/16 01:27:32;;;;;;;5.43;2.90;;;;;;;31.81;41.91;99479.72;5099114;28;20100;-85
2022/06/16 01:30:03;;;;;;;4.43;2.78;;;;;;;31.79;42.08;99480.88;5061432;28;20042;-86
2022/06/16 01:32:47;;;;;;;6.10;2.75;;;;;;;31.78;42.08;99474.66;5117288;28;20031;-85
2022/06/16 01:35:48;;;;;;;5.30;2.78;;;;;;;31.77;42.03;99478.38;5117180;28;20372;-87
2022/06/16 01:38:52;;;;;;;5.10;2.50;;;;;;;31.76;42.28;99476.66;5063572;28;20055;-86
2022/06/16 01:41:28;;;;;;;4.70;2.78;;;;;;;31.75;42.20;99480.38;5117435;28;20028;-85
2022/06/16 01:44:10;;;;;;;5.55;3.00;;;;;;;31.74;42.01;99484.09;5098901;28;20425;-86
2022/06/16 01:46:51;;;;;;;4.75;3.00;;;;;;;31.73;41.99;99477.00;5115959;28;20027;-85
2022/06/16 01:49:43;;;;;;;4.68;2.72;;;;;;;31.72;42.04;99475.31;5117731;28;20445;-86
2022/06/16 01:52:26;;;;;;;5.57;2.85;;;;;;;31.70;42.09;99482.72;5116451;28;20053;-84
2022/06/16 01:55:35;;;;;;;;;;;;;;;;;;;;;
2022/06/16 01:58:07;;;;;;;4.85;2.60;;;;;;;31.67;42.00;99488.47;5116852;28;20028;-84
2022/06/16 02:00:34;;;;;;;4.40;2.60;;;;;;;31.67;42.21;99491.16;5098578;28;20461;-83
2022/06/16 02:03:14;;;;;;;4.47;2.67;;;;;;;31.65;42.13;99491.31;5115811;28;20054;-84
2022/06/16 02:06:16;;;;;;;5.97;3.53;;;;;;;31.64;42.10;99494.16;5098414;28;20392;-86
2022/06/16 02:08:50;;;;;;;6.28;2.70;;;;;;;31.63;42.04;99503.25;5098225;28;20034;-85
2022/06/16 02:11:26;;;;;;;5.10;3.13;;;;;;;31.61;42.46;99488.09;5098346;28;20465;-87
2022/06/16 02:14:15;;;;;;;4.38;2.70;;;;;;;31.61;42.05;99498.88;5116189;28;20409;-85
2022/06/16 02:16:43;;;;;;;6.07;2.95;;;;;;;31.59;42.29;99498.22;5054846;28;20043;-84
2022/06/16 02:19:15;;;;;;;4.70;2.92;;;;;;;31.58;42.05;99491.09;5095126;28;20468;-84
2022/06/16 02:21:46;;;;;;;5.13;3.00;;;;;;;31.57;42.17;99489.44;5095122;28;20048;-85
2022/06/16 02:24:17;;;;;;;5.28;2.78;;;;;;;31.56;42.20;99490.44;5094929;28;20032;-85
2022/06/16 02:26:44;;;;;;;6.25;3.20;;;;;;;31.56;42.46;99482.34;5094698;28;20020;-85
2022/06/16 02:29:34;;;;;;;4.95;2.72;;;;;;;31.54;42.07;99484.38;5094813;28;20112;-86
2022/06/16 02:32:39;;;;;;;4.80;2.80;;;;;;;31.53;42.25;99482.69;5094608;28;20119;-86
2022/06/16 02:35:28;;;;;;;5.70;2.70;;;;;;;31.51;42.20;99476.59;5094630;28;20020;-86
2022/06/16 02:38:13;;;;;;;6.80;2.67;;;;;;;31.50;41.94;99485.69;5093882;28;20047;-85
2022/06/16 02:41:03;;;;;;;6.00;3.00;;;;;;;31.49;42.05;99486.72;5094584;28;20388;-85
2022/06/16 02:43:47;;;;;;;5.35;3.10;;;;;;;31.47;42.16;99489.56;5097611;28;20054;-86
2022/06/16 02:46:37;;;;;;;5.35;2.85;;;;;;;31.47;42.15;99491.44;5095535;28;20361;-87
2022/06/16 02:49:27;;;;;;;4.60;2.95;;;;;;;31.45;42.08;99485.34;5094250;28;20028;-85
2022/06/16 02:52:02;;;;;;;4.47;2.50;;;;;;;31.42;42.00;99480.28;5094193;28;20468;-86
2022/06/16 02:54:56;;;;;;;5.05;3.10;;;;;;;31.43;42.18;99490.06;5093210;28;20032;-86
2022/06/16 02:57:44;;;;;;;4.65;3.10;;;;;;;31.41;42.13;99489.34;5095396;28;20028;-85
2022/06/16 03:00:22;;;;;;;6.38;3.38;;;;;;;31.40;42.33;99484.97;5094122;28;20024;-88
2022/06/16 03:02:48;;;;;;;7.53;3.20;;;;;;;31.39;42.17;99488.69;5094011;28;20028;-86
2022/06/16 03:05:15;;;;;;;6.10;3.25;;;;;;;31.38;42.11;99489.69;5094352;28;20019;-87
2022/06/16 03:07:43;;;;;;;5.53;3.30;;;;;;;31.37;42.25;99494.22;5094396;28;20036;-87
2022/06/16 03:10:13;;;;;;;5.85;3.33;;;;;;;31.37;42.28;99488.00;5094200;28;20024;-88
2022/06/16 03:12:38;;;;;;;5.60;3.30;;;;;;;31.36;42.34;99486.34;5094468;28;20035;-89
2022/06/16 03:15:05;;;;;;;5.97;3.13;;;;;;;31.34;42.16;99487.31;5094825;28;20059;-86
2022/06/16 03:17:34;;;;;;;6.80;3.75;;;;;;;31.35;42.09;99485.47;5093965;28;20127;-85
2022/06/16 03:20:00;;;;;;;5.45;3.20;;;;;;;31.33;42.13;99492.88;5094084;28;20024;-85
2022/06/16 03:22:29;;;;;;;5.22;3.03;;;;;;;31.31;42.36;99484.09;5094985;28;20089;-87
2022/06/16 03:24:55;;;;;;;6.28;3.10;;;;;;;31.29;42.18;99486.97;5093684;28;20028;-87
2022/06/16 03:27:21;;;;;;;5.90;3.22;;;;;;;31.28;42.15;99490.66;5094865;28;20032;-87
2022/06/16 03:29:46;;;;;;;6.57;3.33;;;;;;;31.28;42.22;99489.81;5095032;28;20459;-85
2022/06/16 03:32:12;;;;;;;7.10;3.15;;;;;;;31.28;42.03;99492.53;5093874;28;20027;-86
2022/06/16 03:34:37;;;;;;;5.38;2.88;;;;;;;31.27;42.20;99493.50;5097658;28;20105;-86
2022/06/16 03:37:03;;;;;;;5.05;3.00;;;;;;;31.25;42.13;99501.75;5094748;28;20104;-85
2022/06/16 03:39:29;;;;;;;5.70;3.03;;;;;;;31.25;42.36;99500.88;5094816;28;20057;-85
2022/06/16 03:41:55;;;;;;;5.93;2.88;;;;;;;31.25;42.22;99501.75;5095225;28;20461;-86
2022/06/16 03:44:21;;;;;;;4.47;2.80;;;;;;;31.23;42.16;99498.34;5093765;28;20027;-85
2022/06/16 03:46:46;;;;;;;5.55;2.58;;;;;;;31.23;42.15;99500.22;5093820;28;20103;-86
2022/06/16 03:49:12;;;;;;;4.10;2.60;;;;;;;31.23;42.46;99500.22;5093728;28;20066;-84
2022/06/16 03:51:38;;;;;;;4.55;3.05;;;;;;;31.23;42.27;99498.34;5093743;28;20035;-85
2022/06/16 03:54:23;;;;;;;4.82;2.97;;;;;;;31.21;42.46;99503.06;5093667;28;20032;-85
2022/06/16 03:56:49;;;;;;;6.00;2.88;;;;;;;31.20;42.10;99498.69;5093423;28;20036;-85
2022/06/16 03:59:21;;;;;;;5.57;2.85;;;;;;;31.18;42.52;99496.13;5093651;28;20096;-86
2022/06/16 04:01:51;;;;;;;5.50;2.85;;;;;;;31.18;42.41;99496.13;5093387;28;20028;-86
2022/06/16 04:04:17;;;;;;;6.20;2.92;;;;;;;31.17;42.25;99493.59;5093337;28;20027;-87
2022/06/16 04:06:43;;;;;;;4.18;2.60;;;;;;;31.16;42.38;99492.78;5093522;28;20016;-86
2022/06/16 04:09:09;;;;;;;4.40;2.70;;;;;;;31.16;42.43;99497.31;5093570;28;20441;-86
2022/06/16 04:11:36;;;;;;;4.13;2.72;;;;;;;31.14;42.45;99493.94;5093588;28;20055;-86
2022/06/16 04:14:09;;;;;;;4.13;2.60;;;;;;;31.14;42.45;99496.63;5094545;28;20020;-87
2022/06/16 04:16:38;;;;;;;4.55;2.80;;;;;;;31.13;42.37;99494.94;5093016;28;20074;-87
2022/06/16 04:19:05;;;;;;;4.85;2.70;;;;;;;31.12;42.37;99494.09;5093489;28;20028;-85
2022/06/16 04:21:31;;;;;;;4.70;2.78;;;;;;;31.12;42.40;99485.19;5094525;28;20020;-85
2022/06/16 04:24:00;;;;;;;4.95;2.70;;;;;;;31.11;42.64;99491.53;5096490;28;20449;-85
2022/06/16 04:26:26;;;;;;;4.95;2.83;;;;;;;31.10;42.34;99497.94;5094162;28;20031;-86
2022/06/16 04:28:52;;;;;;;5.38;3.08;;;;;;;31.08;42.50;99498.94;5095660;28;20508;-85
2022/06/16 04:31:30;;;;;;;5.13;3.00;;;;;;;31.07;42.58;99497.28;5093396;28;20110;-85
2022/06/16 04:33:56;;;;;;;5.55;2.70;;;;;;;31.06;42.50;99498.28;5093886;28;20031;-87
2022/06/16 04:36:28;;;;;;;5.32;2.60;;;;;;;31.05;42.36;99496.56;5094632;28;20476;-86
2022/06/16 04:38:55;;;;;;;4.80;2.58;;;;;;;31.03;42.52;99509.38;5096991;28;20024;-86
2022/06/16 04:41:35;;;;;;;5.75;3.00;;;;;;;31.03;42.71;99509.38;5097889;28;20043;-87
2022/06/16 04:44:04;;;;;;;6.95;3.03;;;;;;;31.02;42.71;99515.75;5096875;28;20023;-85
2022/06/16 04:46:32;;;;;;;5.03;2.72;;;;;;;31.01;42.57;99516.78;5096843;28;20452;-88
2022/06/16 04:48:58;;;;;;;4.28;2.35;;;;;;;31.01;42.66;99511.38;5096953;28;20031;-87
2022/06/16 04:51:24;;;;;;;4.70;2.45;;;;;;;31.00;42.63;99508.84;5097428;28;20085;-85
2022/06/16 04:53:52;;;;;;;4.82;2.70;;;;;;;30.98;42.79;99500.91;5097513;28;20023;-85
2022/06/16 04:56:19;;;;;;;3.97;2.70;;;;;;;30.98;42.52;99500.91;5096551;28;20070;-86
2022/06/16 04:58:44;;;;;;;3.50;2.22;;;;;;;30.98;42.66;99503.59;5096704;28;20028;-86
2022/06/16 05:01:10;;;;;;;4.43;2.88;;;;;;;30.96;42.74;99513.69;5096742;28;20023;-86
2022/06/16 05:03:36;;;;;;;5.65;3.03;;;;;;;30.95;42.71;99512.00;5096635;28;20061;-84
2022/06/16 05:06:02;;;;;;;6.10;2.58;;;;;;;30.94;42.79;99515.72;5097715;28;20024;-86
2022/06/16 05:09:12;;;;;;;4.88;2.80;;;;;;;30.95;42.82;99518.22;5096447;28;20110;-85
2022/06/16 05:14:59;;;;;;;5.15;2.80;;;;;;;30.93;42.90;99503.22;5100042;28;20063;-85
2022/06/16 05:17:25;;;;;;;5.38;2.70;;;;;;;30.91;42.74;99500.72;5117635;28;20372;-86
2022/06/16 05:30:07;;;;;;;5.68;2.80;;;;;;;30.87;43.01;99506.56;5118224;28;20112;-85
2022/06/16 05:32:32;;;;;;;5.07;2.85;;;;;;;30.88;42.48;99510.97;5100033;28;20035;-84
2022/06/16 05:38:19;;;;;;;5.43;3.35;;;;;;;30.86;42.90;99515.66;5116883;28;20097;-87
2022/06/16 05:40:45;;;;;;;5.55;2.95;;;;;;;30.86;42.67;99516.50;5099045;28;20445;-85
2022/06/16 05:43:14;;;;;;;5.85;3.05;;;;;;;30.86;42.77;99512.94;5099213;28;20023;-86
2022/06/16 05:45:39;;;;;;;5.43;3.20;;;;;;;30.85;42.76;99508.56;5099432;28;20023;-87
2022/06/16 05:48:54;;;;;;;4.60;2.85;;;;;;;30.85;42.93;99500.50;5117034;28;20016;-83
2022/06/16 05:51:54;;;;;;;4.32;2.67;;;;;;;30.84;42.91;99507.72;5117055;28;20020;-84
2022/06/16 05:54:38;;;;;;;5.63;2.95;;;;;;;30.81;42.91;99508.88;5116936;28;20027;-83
2022/06/16 05:57:16;;;;;;;4.45;2.85;;;;;;;30.80;42.80;99509.88;5099296;28;20019;-84
2022/06/16 05:59:42;;;;;;;5.72;2.95;;;;;;;30.81;42.81;99522.34;5099051;28;20051;-84
2022/06/16 06:02:54;;;;;;;4.93;2.72;;;;;;;30.79;42.87;99524.34;5098766;28;20051;-85
2022/06/16 06:05:25;;;;;;;4.38;2.67;;;;;;;30.79;42.99;99524.34;5098716;28;20023;-84
2022/06/16 06:19:27;;;;;;;4.43;2.53;;;;;;;30.81;42.58;99554.66;5071512;28;20046;-87
2022/06/16 06:21:58;;;;;;;4.47;2.60;;;;;;;30.80;42.70;99557.53;5117083;28;20476;-85
2022/06/16 06:24:24;;;;;;;5.15;3.03;;;;;;;30.80;42.52;99563.75;5117406;28;20019;-84
2022/06/16 06:26:50;;;;;;;4.35;2.78;;;;;;;30.79;42.82;99572.84;5101097;28;20034;-83
2022/06/16 06:29:15;;;;;;;4.13;2.60;;;;;;;30.78;42.63;99576.53;5098233;28;20380;-85
2022/06/16 06:31:41;;;;;;;4.75;2.42;;;;;;;30.78;42.58;99579.22;5098176;28;20024;-85
2022/06/16 06:34:07;;;;;;;3.90;2.50;;;;;;;30.77;42.66;99588.31;5116109;28;20085;-84
2022/06/16 06:36:32;;;;;;;4.93;2.70;;;;;;;30.77;42.84;99588.31;5098087;28;20019;-83
2022/06/16 06:38:58;;;;;;;5.00;2.45;;;;;;;30.76;42.82;99592.03;5116130;28;20027;-84
2022/06/16 06:41:24;;;;;;;4.53;2.50;;;;;;;30.76;42.88;99591.16;5097973;28;20114;-84
2022/06/16 06:43:49;;;;;;;4.32;2.92;;;;;;;30.76;42.62;99589.31;5098443;28;20039;-83
2022/06/16 06:46:15;;;;;;;4.82;2.50;;;;;;;30.77;42.83;99590.16;5116051;28;20023;-86
2022/06/16 06:48:41;;;;;;;4.55;2.42;;;;;;;30.76;42.67;99594.72;5116196;28;20019;-83
2022/06/16 06:51:06;;;;;;;4.63;2.67;;;;;;;30.77;42.91;99596.41;5097918;28;20051;-85
2022/06/16 06:53:32;;;;;;;5.75;2.85;;;;;;;30.77;42.82;99596.41;5097778;28;20031;-84
2022/06/16 06:55:58;;;;;;;4.97;2.80;;;;;;;30.77;42.53;99596.41;5097803;28;20038;-84
2022/06/16 06:58:24;;;;;;;4.28;2.60;;;;;;;30.77;42.64;99606.31;5115601;28;20020;-85
2022/06/16 07:00:53;;;;;;;4.18;2.50;;;;;;;30.78;42.61;99614.25;5096947;28;20430;-83
2022/06/16 07:03:20;;;;;;;4.47;2.83;;;;;;;30.76;42.66;99616.25;5097693;28;20023;-83
2022/06/16 07:05:47;;;;;;;4.55;2.47;;;;;;;30.77;42.78;99627.88;5115566;28;20020;-85
2022/06/16 07:08:13;;;;;;;3.78;2.40;;;;;;;30.78;42.73;99624.16;5115530;28;20451;-84
2022/06/16 07:10:40;;;;;;;5.38;2.95;;;;;;;30.76;42.55;99620.78;5097592;28;20027;-85
2022/06/16 07:13:06;;;;;;;4.28;2.50;;;;;;;30.77;42.83;99628.72;5097859;28;20027;-83
2022/06/16 07:15:34;;;;;;;4.78;2.80;;;;;;;30.79;42.75;99625.88;5115689;28;20035;-83
2022/06/16 07:18:00;;;;;;;4.20;2.72;;;;;;;30.78;42.82;99619.63;5098179;28;20032;-83
2022/06/16 07:20:25;;;;;;;4.45;2.42;;;;;;;30.78;42.73;99624.16;5100151;28;20030;-85
2022/06/16 07:22:51;;;;;;;4.55;2.80;;;;;;;30.78;42.57;99625.03;5097298;28;20106;-84
2022/06/16 07:25:17;;;;;;;4.30;2.63;;;;;;;30.78;42.95;99625.03;5097440;28;20038;-83
2022/06/16 07:27:43;;;;;;;5.32;3.10;;;;;;;30.79;42.69;99632.09;5097857;28;20024;-83
2022/06/16 07:30:13;;;;;;;5.22;2.80;;;;;;;30.81;42.86;99635.47;5097836;28;20095;-84
2022/06/16 07:32:40;;;;;;;7.13;3.10;;;;;;;30.83;43.12;99631.81;5115582;28;20395;-85
2022/06/16 07:35:06;;;;;;;4.57;2.70;;;;;;;30.83;42.99;99626.41;5115322;28;20388;-83
2022/06/16 07:37:32;;;;;;;4.45;2.90;;;;;;;30.83;42.68;99632.63;5115124;28;20031;-87
2022/06/16 07:39:58;;;;;;;5.20;2.83;;;;;;;30.85;42.83;99646.81;5115335;28;20019;-86
2022/06/16 07:42:23;;;;;;;5.13;2.53;;;;;;;30.86;42.85;99644.94;5097718;28;20016;-86
2022/06/16 07:44:49;;;;;;;5.13;3.08;;;;;;;30.85;42.81;99636.03;5115558;28;20024;-82
2022/06/16 07:47:14;;;;;;;5.00;3.00;;;;;;;30.86;42.89;99631.47;5115135;28;20143;-83
2022/06/16 07:49:40;;;;;;;4.80;2.40;;;;;;;30.89;42.79;99636.56;5097086;28;20019;-83
2022/06/16 07:52:07;;;;;;;4.78;3.25;;;;;;;30.89;43.17;99633.88;5097026;28;20035;-83
2022/06/16 07:54:33;;;;;;;7.10;3.55;;;;;;;30.90;43.23;99630.19;5114903;28;20111;-83
2022/06/16 07:56:59;;;;;;;5.45;3.00;;;;;;;30.91;43.07;99630.03;5114973;28;20439;-84
2022/06/16 07:59:25;;;;;;;6.32;3.22;;;;;;;30.93;43.35;99632.53;5114970;28;20030;-84
2022/06/16 08:01:50;;;;;;;6.20;3.15;;;;;;;30.94;43.11;99636.94;5097152;28;20107;-85
2022/06/16 08:04:16;;;;;;;4.82;2.70;;;;;;;30.97;43.45;99650.09;5097341;28;20414;-88
2022/06/16 08:06:42;;;;;;;8.15;3.65;;;;;;;30.96;43.37;99651.09;5097694;28;20107;-86
2022/06/16 08:09:10;;;;;;;6.25;3.30;;;;;;;30.98;43.32;99646.41;5116383;28;20053;-86
2022/06/16 08:14:21;;;;;;;5.65;3.05;;;;;;;31.03;42.94;99662.13;5119393;28;20115;-83
2022/06/16 08:16:47;;;;;;;6.03;3.33;;;;;;;31.03;43.35;99660.25;5097390;28;20128;-84
2022/06/16 08:19:13;;;;;;;6.95;3.65;;;;;;;31.06;42.98;99656.41;5097550;28;20101;-84
2022/06/16 08:21:39;;;;;;;5.80;2.95;;;;;;;31.06;43.13;99662.66;5097308;28;20493;-85
2022/06/16 08:24:06;;;;;;;5.32;2.95;;;;;;;31.08;43.04;99667.84;5097367;28;20052;-83
2022/06/16 08:26:34;;;;;;;5.82;3.10;;;;;;;31.08;42.83;99674.09;5097388;28;20035;-83
2022/06/16 08:28:59;;;;;;;6.40;3.35;;;;;;;31.11;42.79;99666.69;5097305;28;20035;-84
2022/06/16 08:31:26;;;;;;;6.60;3.67;;;;;;;31.13;42.86;99672.81;5098266;28;20372;-83
2022/06/16 08:33:53;;;;;;;7.28;3.33;;;;;;;31.14;42.71;99677.19;5097192;28;20038;-83
2022/06/16 08:36:20;;;;;;;6.25;3.20;;;;;;;31.16;42.67;99691.34;5097970;28;20047;-85
2022/06/16 08:38:46;;;;;;;6.40;3.20;;;;;;;31.18;42.51;99674.00;5098452;28;20036;-85
2022/06/16 08:41:21;;;;;;;7.78;3.17;;;;;;;31.19;42.81;99672.19;5097001;28;20028;-84
2022/06/16 08:44:05;;;;;;;5.88;3.45;;;;;;;31.20;42.82;99666.63;5096710;28;20362;-83
2022/06/16 08:46:58;;;;;;;5.70;3.45;;;;;;;31.23;42.58;99676.22;5098001;28;20229;-85
2022/06/16 08:49:30;;;;;;;6.88;3.33;;;;;;;31.25;42.52;99684.16;5092213;28;20119;-85
2022/06/16 08:52:10;;;;;;;4.55;3.10;;;;;;;31.28;42.54;99682.03;5096593;28;20031;-84
2022/06/16 08:54:47;;;;;;;5.55;3.13;;;;;;;31.29;42.50;99680.19;5096441;28;20039;-83
2022/06/16 08:57:45;;;;;;;5.75;3.47;;;;;;;31.31;42.65;99673.66;5097814;28;20023;-83
2022/06/16 09:00:16;;;;;;;4.88;3.15;;;;;;;31.32;42.53;99680.72;5098501;28;20369;-84
2022/06/16 09:03:07;;;;;;;5.60;2.83;;;;;;;31.34;42.36;99678.72;5098586;28;20024;-83
2022/06/16 09:05:32;;;;;;;3.88;2.80;;;;;;;31.36;42.44;99675.03;5097734;28;20032;-83
2022/06/16 09:08:16;;;;;;;6.38;3.13;;;;;;;31.37;42.60;99674.03;5097500;28;20016;-84
2022/06/16 09:11:01;;;;;;;4.20;2.95;;;;;;;31.40;42.49;99676.41;5096492;28;20028;-83
2022/06/16 09:13:44;;;;;;;4.80;3.20;;;;;;;31.41;42.41;99678.94;5096206;28;20027;-85
2022/06/16 09:16:34;;;;;;;7.05;3.60;;;;;;;31.44;42.19;99680.47;5095872;28;20465;-83
2022/06/16 09:19:09;;;;;;;4.80;2.85;;;;;;;31.45;42.25;99679.47;5096043;28;20036;-84
2022/06/16 09:21:41;;;;;;;7.13;3.30;;;;;;;31.47;42.30;99682.88;5096179;28;20035;-83
2022/06/16 09:24:35;;;;;;;6.10;3.13;;;;;;;31.49;42.40;99691.63;5095366;28;20019;-84
2022/06/16 09:27:11;;;;;;;4.70;3.20;;;;;;;31.52;42.39;99702.09;5095797;28;20503;-85
2022/06/16 09:30:04;;;;;;;4.25;2.83;;;;;;;31.53;42.53;99698.41;5097253;28;20217;-84
2022/06/16 09:33:00;;;;;;;4.80;3.13;;;;;;;31.55;42.30;99706.31;5096804;28;20484;-84
2022/06/16 09:35:32;;;;;;;4.90;3.25;;;;;;;31.57;42.54;99715.94;5095819;28;20369;-86
2022/06/16 09:38:13;;;;;;;5.10;3.20;;;;;;;31.59;42.47;99713.09;5095677;28;20422;-87
2022/06/16 09:40:49;;;;;;;4.65;2.72;;;;;;;31.59;42.25;99713.97;5096881;28;20043;-84
2022/06/16 09:43:31;;;;;;;5.43;2.95;;;;;;;31.61;42.23;99709.25;5095874;28;20020;-85
2022/06/16 09:46:03;;;;;;;5.55;3.20;;;;;;;31.63;42.38;99713.63;5097067;28;20499;-83
2022/06/16 09:48:40;;;;;;;5.40;3.08;;;;;;;31.65;42.33;99722.44;5098909;28;20020;-87
2022/06/16 09:51:46;;;;;;;5.55;3.20;;;;;;;31.68;42.14;99724.78;5097537;28;20047;-87
2022/06/16 09:54:24;;;;;;;4.82;2.85;;;;;;;31.70;42.20;99728.16;5090976;28;20035;-86
2022/06/16 09:57:09;;;;;;;6.82;3.28;;;;;;;31.72;42.29;99723.47;5099298;28;20020;-88
2022/06/16 09:59:44;;;;;;;4.50;2.65;;;;;;;31.73;42.32;99727.88;5096738;28;20024;-84
2022/06/16 10:02:23;;;;;;;7.10;3.30;;;;;;;31.75;42.16;99733.94;5095103;28;20024;-82
2022/06/16 10:04:51;;;;;;;5.35;3.08;;;;;;;31.77;42.03;99729.25;5096682;28;20461;-83
2022/06/16 10:07:36;;;;;;;4.38;2.60;;;;;;;31.78;42.45;99733.63;5096348;28;20015;-85
2022/06/16 10:10:06;;;;;;;5.05;3.00;;;;;;;31.81;42.29;99733.31;5095115;28;20062;-83
2022/06/16 10:13:18;;;;;;;4.88;3.08;;;;;;;31.83;41.91;99736.72;5096170;28;20093;-82
2022/06/16 10:15:58;;;;;;;4.93;3.13;;;;;;;31.85;41.99;99729.31;5089600;28;20044;-84
2022/06/16 10:18:24;;;;;;;3.95;2.72;;;;;;;31.88;42.15;99729.03;5096176;28;20361;-83
2022/06/16 10:20:50;;;;;;;5.97;3.50;;;;;;;31.89;42.29;99729.84;5096015;28;20032;-85
2022/06/16 10:23:16;;;;;;;5.30;3.30;;;;;;;31.91;41.82;99722.47;5095002;28;20579;-84
2022/06/16 10:25:54;;;;;;;4.63;2.90;;;;;;;31.93;42.25;99711.47;5096419;28;20445;-83
2022/06/16 10:28:30;;;;;;;4.15;2.80;;;;;;;31.96;42.17;99713.88;5094736;28;20020;-83
2022/06/16 10:30:59;;;;;;;7.07;3.45;;;;;;;31.98;42.31;99717.25;5094618;28;20023;-84
2022/06/16 10:33:39;;;;;;;6.22;3.10;;;;;;;32.01;41.93;99711.53;5096124;28;20028;-84
2022/06/16 10:36:20;;;;;;;5.18;3.35;;;;;;;32.03;41.94;99709.53;5094690;28;20020;-83
2022/06/16 10:39:25;;;;;;;5.10;3.00;;;;;;;32.05;41.96;99704.78;5096746;28;20028;-83
2022/06/16 10:42:00;;;;;;;5.93;3.60;;;;;;;32.06;42.08;99701.13;5094934;28;20036;-83
2022/06/16 10:44:31;;;;;;;7.15;3.58;;;;;;;32.09;41.84;99698.06;5098534;28;20509;-83
2022/06/16 10:47:02;;;;;;;5.28;3.58;;;;;;;32.11;41.94;99706.84;5094168;28;20024;-83
2022/06/16 10:49:33;;;;;;;6.47;3.70;;;;;;;32.13;41.97;99696.75;5096960;28;20043;-85
2022/06/16 10:52:21;;;;;;;8.38;3.03;;;;;;;32.15;41.77;99694.72;5095619;28;20334;-85
2022/06/16 10:55:05;;;;;;;5.80;3.42;;;;;;;32.18;41.92;99690.00;5095914;28;20035;-84
2022/06/16 10:57:40;;;;;;;7.50;3.80;;;;;;;32.21;42.01;99684.28;5093977;28;20028;-83
2022/06/16 11:00:12;;;;;;;5.90;3.58;;;;;;;32.23;42.00;99690.38;5099100;28;20024;-82
2022/06/16 11:02:58;;;;;;;7.05;3.25;;;;;;;32.23;42.00;99691.22;5095889;28;20032;-84
2022/06/16 11:05:29;;;;;;;5.65;3.28;;;;;;;32.26;42.07;99692.75;5097535;28;20028;-82
2022/06/16 11:08:07;;;;;;;6.03;3.33;;;;;;;32.29;41.92;99687.00;5097386;28;20032;-85
2022/06/16 11:10:37;;;;;;;5.53;3.20;;;;;;;32.31;41.75;99690.41;5096758;28;20028;-85
2022/06/16 11:13:05;;;;;;;6.22;3.63;;;;;;;32.32;42.14;99689.41;5095937;28;20024;-84
2022/06/16 11:15:40;;;;;;;5.25;3.22;;;;;;;32.36;41.89;99692.63;5101675;28;20078;-85
2022/06/16 11:18:12;;;;;;;6.25;3.72;;;;;;;32.38;41.86;99686.03;5097450;28;20469;-83
2022/06/16 11:20:43;;;;;;;6.22;3.38;;;;;;;32.39;42.03;99687.72;5115621;28;20402;-83
2022/06/16 11:23:22;;;;;;;5.00;2.92;;;;;;;32.42;42.00;99683.88;5115446;28;20132;-83
2022/06/16 11:26:11;;;;;;;7.05;3.88;;;;;;;32.45;42.12;99685.41;5097597;28;20027;-82
2022/06/16 11:28:48;;;;;;;6.38;3.53;;;;;;;32.47;41.88;99678.84;5097431;28;20120;-84
2022/06/16 11:31:21;;;;;;;5.43;3.67;;;;;;;32.49;41.65;99673.28;5116153;28;20023;-87
2022/06/16 11:34:07;;;;;;;5.88;3.97;;;;;;;32.51;41.99;99671.25;5116043;28;20106;-85
2022/06/16 11:37:00;;;;;;;7.30;3.50;;;;;;;32.53;41.79;99672.78;5098791;28;20028;-85
2022/06/16 11:39:41;;;;;;;7.07;4.22;;;;;;;32.55;41.92;99664.50;5118739;28;20057;-85
2022/06/16 11:42:19;;;;;;;6.05;3.50;;;;;;;32.57;41.85;99662.47;5097157;28;20457;-86
2022/06/16 11:45:17;;;;;;;6.53;3.88;;;;;;;32.59;41.79;99665.88;5115686;28;20035;-88
2022/06/16 11:47:49;;;;;;;5.13;3.13;;;;;;;32.61;41.82;99663.84;5086593;28;20050;-85
2022/06/16 11:50:35;;;;;;;5.35;3.60;;;;;;;32.64;41.90;99663.50;5101434;28;20119;-83
2022/06/16 11:53:04;;;;;;;6.68;3.50;;;;;;;32.66;41.74;99648.00;5101306;28;20035;-85
2022/06/16 11:55:39;;;;;;;6.35;4.18;;;;;;;32.68;41.79;99648.66;5101572;28;20036;-85
2022/06/16 11:58:13;;;;;;;6.10;3.38;;;;;;;32.70;41.78;99644.94;5101550;28;20032;-87
2022/06/16 12:01:01;;;;;;;5.38;3.20;;;;;;;32.70;41.57;99645.81;5120081;28;20032;-86
2022/06/16 12:03:41;;;;;;;6.15;3.50;;;;;;;32.73;41.79;99636.53;5120601;28;20024;-85
2022/06/16 12:06:16;;;;;;;6.60;3.47;;;;;;;32.74;41.95;99640.91;5102843;28;20028;-87
2022/06/16 12:09:05;;;;;;;6.68;3.20;;;;;;;32.76;41.79;99634.31;5122339;28;20036;-88
2022/06/16 12:11:57;;;;;;;5.95;3.45;;;;;;;32.78;42.09;99637.69;5119966;28;20028;-84
2022/06/16 12:14:37;;;;;;;5.88;3.88;;;;;;;32.82;42.02;99632.78;5113930;28;20039;-82
2022/06/16 12:17:03;;;;;;;6.53;3.90;;;;;;;32.84;42.12;99629.94;5101309;28;20122;-83
2022/06/16 12:19:46;;;;;;;6.15;3.33;;;;;;;32.85;41.93;99621.66;5101071;28;20495;-86
2022/06/16 12:22:25;;;;;;;6.63;3.55;;;;;;;32.87;41.75;99619.63;5099170;28;20035;-82
2022/06/16 12:25:14;;;;;;;6.15;3.92;;;;;;;32.89;41.75;99623.03;5100355;28;20433;-84
2022/06/16 12:28:02;;;;;;;5.90;3.65;;;;;;;32.91;41.83;99623.69;5080475;28;20082;-84
2022/06/16 12:30:47;;;;;;;5.47;3.70;;;;;;;32.93;41.84;99618.13;5089374;28;20034;-85
2022/06/16 12:33:29;;;;;;;7.13;3.88;;;;;;;32.95;41.88;99619.63;5100511;28;20031;-84
2022/06/16 12:35:59;;;;;;;6.18;3.70;;;;;;;32.98;42.21;99625.75;5099937;28;20578;-82
2022/06/16 12:38:47;;;;;;;7.22;3.80;;;;;;;32.99;42.01;99616.63;5099568;28;20028;-82
2022/06/16 12:41:22;;;;;;;5.53;4.03;;;;;;;33.00;42.06;99612.91;5098755;28;20028;-83
2022/06/16 12:44:15;;;;;;;6.30;3.67;;;;;;;33.03;41.87;99612.56;5080699;28;20465;-85
2022/06/16 12:47:37;;;;;;;6.05;3.45;;;;;;;33.04;42.04;99603.44;5080378;28;20038;-83